sensor_id;sensor_type;location;lat;lon;timestamp;pressure;altitude;pressure_sealevel;temperature
69545;BMP180;56766;52.260;20.746;2023-02-03T00:02:02;100741.80;;;0.60
69545;BMP180;56766;52.260;20.746;2023-02-03T00:04:29;100745.00;;;0.60
69545;BMP180;56766;52.260;20.746;2023-02-03T00:06:55;100746.00;;;0.50
69545;BMP180;56766;52.260;20.746;2023-02-03T00:09:22;100741.60;;;0.48
69545;BMP180;56766;52.260;20.746;2023-02-03T00:11:49;100743.60;;;0.40
69545;BMP180;56766;52.260;20.746;2023-02-03T00:14:16;100753.20;;;0.30
69545;BMP180;56766;52.260;20.746;2023-02-03T00:16:43;100754.40;;;0.22
69545;BMP180;56766;52.260;20.746;2023-02-03T00:19:09;100751.80;;;0.18
69545;BMP180;56766;52.260;20.746;2023-02-03T00:21:36;100756.60;;;0.10
69545;BMP180;56766;52.260;20.746;2023-02-03T00:24:03;100758.00;;;0.04
69545;BMP180;56766;52.260;20.746;2023-02-03T00:26:29;100758.20;;;0.00
69545;BMP180;56766;52.260;20.746;2023-02-03T00:28:59;100761.00;;;-0.08
69545;BMP180;56766;52.260;20.746;2023-02-03T00:31:26;100758.20;;;-0.10
69545;BMP180;56766;52.260;20.746;2023-02-03T00:33:56;100765.60;;;-0.12
69545;BMP180;56766;52.260;20.746;2023-02-03T00:36:25;100769.20;;;-0.20
69545;BMP180;56766;52.260;20.746;2023-02-03T00:38:53;100776.60;;;-0.20
69545;BMP180;56766;52.260;20.746;2023-02-03T00:41:20;100768.40;;;-0.20
69545;BMP180;56766;52.260;20.746;2023-02-03T00:43:48;100767.80;;;-0.20
69545;BMP180;56766;52.260;20.746;2023-02-03T00:46:15;100773.80;;;-0.20
69545;BMP180;56766;52.260;20.746;2023-02-03T00:48:42;100780.00;;;-0.20
69545;BMP180;56766;52.260;20.746;2023-02-03T00:51:08;100775.80;;;-0.20
69545;BMP180;56766;52.260;20.746;2023-02-03T00:53:35;100784.00;;;-0.20
69545;BMP180;56766;52.260;20.746;2023-02-03T00:56:03;100777.80;;;-0.30
69545;BMP180;56766;52.260;20.746;2023-02-03T00:58:29;100784.20;;;-0.30
69545;BMP180;56766;52.260;20.746;2023-02-03T01:00:56;100784.20;;;-0.30
69545;BMP180;56766;52.260;20.746;2023-02-03T01:03:23;100786.40;;;-0.22
69545;BMP180;56766;52.260;20.746;2023-02-03T01:05:50;100781.20;;;-0.20
69545;BMP180;56766;52.260;20.746;2023-02-03T01:08:17;100784.20;;;-0.20
69545;BMP180;56766;52.260;20.746;2023-02-03T01:10:44;100781.00;;;-0.20
69545;BMP180;56766;52.260;20.746;2023-02-03T01:13:11;100781.00;;;-0.14
69545;BMP180;56766;52.260;20.746;2023-02-03T01:15:44;100788.20;;;-0.10
69545;BMP180;56766;52.260;20.746;2023-02-03T01:18:11;100789.20;;;-0.10
69545;BMP180;56766;52.260;20.746;2023-02-03T01:20:38;100790.00;;;-0.10
69545;BMP180;56766;52.260;20.746;2023-02-03T01:23:05;100791.20;;;-0.10
69545;BMP180;56766;52.260;20.746;2023-02-03T01:25:34;100786.60;;;-0.10
69545;BMP180;56766;52.260;20.746;2023-02-03T01:28:01;100783.00;;;-0.08
69545;BMP180;56766;52.260;20.746;2023-02-03T01:30:27;100781.80;;;0.00
69545;BMP180;56766;52.260;20.746;2023-02-03T01:32:54;100782.20;;;0.00
69545;BMP180;56766;52.260;20.746;2023-02-03T01:35:21;100783.60;;;-0.04
69545;BMP180;56766;52.260;20.746;2023-02-03T01:37:47;100787.80;;;-0.02
69545;BMP180;56766;52.260;20.746;2023-02-03T01:40:14;100788.60;;;-0.08
69545;BMP180;56766;52.260;20.746;2023-02-03T01:42:41;100788.40;;;-0.04
69545;BMP180;56766;52.260;20.746;2023-02-03T01:45:10;100782.40;;;0.00
69545;BMP180;56766;52.260;20.746;2023-02-03T01:47:51;100779.20;;;0.00
69545;BMP180;56766;52.260;20.746;2023-02-03T01:50:31;100778.80;;;-0.10
69545;BMP180;56766;52.260;20.746;2023-02-03T01:53:07;100772.40;;;-0.10
69545;BMP180;56766;52.260;20.746;2023-02-03T01:55:46;100782.60;;;-0.20
69545;BMP180;56766;52.260;20.746;2023-02-03T01:58:22;100770.00;;;-0.20
69545;BMP180;56766;52.260;20.746;2023-02-03T02:00:52;100771.00;;;-0.20
69545;BMP180;56766;52.260;20.746;2023-02-03T02:03:35;100768.40;;;-0.20
69545;BMP180;56766;52.260;20.746;2023-02-03T02:06:09;100770.20;;;-0.24
69545;BMP180;56766;52.260;20.746;2023-02-03T02:08:39;100764.20;;;-0.30
69545;BMP180;56766;52.260;20.746;2023-02-03T02:11:07;100765.40;;;-0.30
69545;BMP180;56766;52.260;20.746;2023-02-03T02:13:37;100756.80;;;-0.30
69545;BMP180;56766;52.260;20.746;2023-02-03T02:16:17;100756.60;;;-0.30
69545;BMP180;56766;52.260;20.746;2023-02-03T02:25:13;100755.40;;;-0.30
69545;BMP180;56766;52.260;20.746;2023-02-03T02:31:46;100747.40;;;-0.40
69545;BMP180;56766;52.260;20.746;2023-02-03T02:34:49;100749.60;;;-0.40
69545;BMP180;56766;52.260;20.746;2023-02-03T02:40:50;100733.80;;;-0.40
69545;BMP180;56766;52.260;20.746;2023-02-03T02:43:46;100729.00;;;-0.46
69545;BMP180;56766;52.260;20.746;2023-02-03T02:49:06;100731.40;;;-0.50
69545;BMP180;56766;52.260;20.746;2023-02-03T02:51:38;100736.60;;;-0.60
69545;BMP180;56766;52.260;20.746;2023-02-03T02:54:15;100735.00;;;-0.60
69545;BMP180;56766;52.260;20.746;2023-02-03T02:56:50;100728.40;;;-0.70
69545;BMP180;56766;52.260;20.746;2023-02-03T02:59:19;100734.40;;;-0.70
69545;BMP180;56766;52.260;20.746;2023-02-03T03:01:46;100736.20;;;-0.80
69545;BMP180;56766;52.260;20.746;2023-02-03T03:04:20;100737.60;;;-0.84
69545;BMP180;56766;52.260;20.746;2023-02-03T03:07:10;100730.20;;;-0.90
69545;BMP180;56766;52.260;20.746;2023-02-03T03:09:47;100731.00;;;-1.00
69545;BMP180;56766;52.260;20.746;2023-02-03T03:12:23;100740.80;;;-1.00
69545;BMP180;56766;52.260;20.746;2023-02-03T03:15:03;100746.60;;;-1.00
69545;BMP180;56766;52.260;20.746;2023-02-03T03:17:46;100743.00;;;-1.00
69545;BMP180;56766;52.260;20.746;2023-02-03T03:20:23;100750.20;;;-1.08
69545;BMP180;56766;52.260;20.746;2023-02-03T03:23:00;100745.60;;;-1.10
69545;BMP180;56766;52.260;20.746;2023-02-03T03:25:48;100745.00;;;-1.10
69545;BMP180;56766;52.260;20.746;2023-02-03T03:28:29;100736.20;;;-1.20
69545;BMP180;56766;52.260;20.746;2023-02-03T03:30:58;100734.20;;;-1.20
69545;BMP180;56766;52.260;20.746;2023-02-03T03:33:25;100723.20;;;-1.24
69545;BMP180;56766;52.260;20.746;2023-02-03T03:36:25;100729.20;;;-1.28
69545;BMP180;56766;52.260;20.746;2023-02-03T03:39:10;100716.00;;;-1.30
69545;BMP180;56766;52.260;20.746;2023-02-03T03:42:19;100717.80;;;-1.40
69545;BMP180;56766;52.260;20.746;2023-02-03T03:44:56;100715.60;;;-1.42
69545;BMP180;56766;52.260;20.746;2023-02-03T03:47:45;100712.60;;;-1.50
69545;BMP180;56766;52.260;20.746;2023-02-03T03:50:21;100712.40;;;-1.50
69545;BMP180;56766;52.260;20.746;2023-02-03T03:52:53;100712.40;;;-1.58
69545;BMP180;56766;52.260;20.746;2023-02-03T03:55:21;100716.00;;;-1.60
69545;BMP180;56766;52.260;20.746;2023-02-03T03:58:01;100710.00;;;-1.60
69545;BMP180;56766;52.260;20.746;2023-02-03T04:00:34;100707.00;;;-1.60
69545;BMP180;56766;52.260;20.746;2023-02-03T04:03:16;100707.40;;;-1.60
69545;BMP180;56766;52.260;20.746;2023-02-03T04:05:45;100719.00;;;-1.60
69545;BMP180;56766;52.260;20.746;2023-02-03T04:08:12;100718.40;;;-1.60
69545;BMP180;56766;52.260;20.746;2023-02-03T04:10:42;100715.80;;;-1.66
69545;BMP180;56766;52.260;20.746;2023-02-03T04:13:11;100716.80;;;-1.70
69545;BMP180;56766;52.260;20.746;2023-02-03T04:15:38;100726.60;;;-1.70
69545;BMP180;56766;52.260;20.746;2023-02-03T04:18:04;100726.60;;;-1.70
69545;BMP180;56766;52.260;20.746;2023-02-03T04:20:32;100727.00;;;-1.72
69545;BMP180;56766;52.260;20.746;2023-02-03T04:22:59;100717.60;;;-1.80
69545;BMP180;56766;52.260;20.746;2023-02-03T04:25:26;100727.60;;;-1.80
69545;BMP180;56766;52.260;20.746;2023-02-03T04:27:54;100724.80;;;-1.80
69545;BMP180;56766;52.260;20.746;2023-02-03T04:30:21;100727.40;;;-1.80
69545;BMP180;56766;52.260;20.746;2023-02-03T04:32:49;100729.00;;;-1.80
69545;BMP180;56766;52.260;20.746;2023-02-03T04:35:15;100727.20;;;-1.80
69545;BMP180;56766;52.260;20.746;2023-02-03T04:37:44;100722.80;;;-1.80
69545;BMP180;56766;52.260;20.746;2023-02-03T04:40:11;100721.20;;;-1.76
69545;BMP180;56766;52.260;20.746;2023-02-03T04:42:39;100722.60;;;-1.80
69545;BMP180;56766;52.260;20.746;2023-02-03T04:45:10;100715.40;;;-1.80
69545;BMP180;56766;52.260;20.746;2023-02-03T04:47:37;100712.00;;;-1.80
69545;BMP180;56766;52.260;20.746;2023-02-03T04:50:05;100709.00;;;-1.80
69545;BMP180;56766;52.260;20.746;2023-02-03T04:52:32;100707.40;;;-1.80
69545;BMP180;56766;52.260;20.746;2023-02-03T04:54:59;100714.60;;;-1.80
69545;BMP180;56766;52.260;20.746;2023-02-03T04:57:26;100706.60;;;-1.86
69545;BMP180;56766;52.260;20.746;2023-02-03T04:59:52;100700.40;;;-1.90
69545;BMP180;56766;52.260;20.746;2023-02-03T05:02:19;100693.60;;;-1.90
69545;BMP180;56766;52.260;20.746;2023-02-03T05:04:46;100692.20;;;-1.90
69545;BMP180;56766;52.260;20.746;2023-02-03T05:07:12;100689.80;;;-1.90
69545;BMP180;56766;52.260;20.746;2023-02-03T05:09:39;100695.20;;;-1.90
69545;BMP180;56766;52.260;20.746;2023-02-03T05:12:06;100691.60;;;-1.90
69545;BMP180;56766;52.260;20.746;2023-02-03T05:14:33;100688.00;;;-1.90
69545;BMP180;56766;52.260;20.746;2023-02-03T05:17:00;100688.40;;;-1.90
69545;BMP180;56766;52.260;20.746;2023-02-03T05:19:28;100683.00;;;-1.90
69545;BMP180;56766;52.260;20.746;2023-02-03T05:21:54;100679.20;;;-1.90
69545;BMP180;56766;52.260;20.746;2023-02-03T05:24:21;100675.00;;;-1.90
69545;BMP180;56766;52.260;20.746;2023-02-03T05:26:47;100672.00;;;-1.86
69545;BMP180;56766;52.260;20.746;2023-02-03T05:29:14;100673.20;;;-1.80
69545;BMP180;56766;52.260;20.746;2023-02-03T05:31:41;100674.00;;;-1.80
69545;BMP180;56766;52.260;20.746;2023-02-03T05:34:07;100672.20;;;-1.76
69545;BMP180;56766;52.260;20.746;2023-02-03T05:36:34;100669.60;;;-1.70
69545;BMP180;56766;52.260;20.746;2023-02-03T05:39:00;100663.20;;;-1.72
69545;BMP180;56766;52.260;20.746;2023-02-03T05:41:27;100664.80;;;-1.72
69545;BMP180;56766;52.260;20.746;2023-02-03T05:44:13;100661.20;;;-1.70
69545;BMP180;56766;52.260;20.746;2023-02-03T05:46:39;100656.80;;;-1.72
69545;BMP180;56766;52.260;20.746;2023-02-03T05:49:06;100660.80;;;-1.72
69545;BMP180;56766;52.260;20.746;2023-02-03T05:51:33;100658.20;;;-1.70
69545;BMP180;56766;52.260;20.746;2023-02-03T05:53:59;100661.20;;;-1.70
69545;BMP180;56766;52.260;20.746;2023-02-03T05:56:26;100663.60;;;-1.70
69545;BMP180;56766;52.260;20.746;2023-02-03T05:58:53;100663.00;;;-1.70
69545;BMP180;56766;52.260;20.746;2023-02-03T06:01:20;100656.80;;;-1.70
69545;BMP180;56766;52.260;20.746;2023-02-03T06:03:47;100660.20;;;-1.70
69545;BMP180;56766;52.260;20.746;2023-02-03T06:06:16;100658.20;;;-1.70
69545;BMP180;56766;52.260;20.746;2023-02-03T06:08:43;100654.80;;;-1.70
69545;BMP180;56766;52.260;20.746;2023-02-03T06:11:10;100656.60;;;-1.70
69545;BMP180;56766;52.260;20.746;2023-02-03T06:13:37;100652.80;;;-1.66
69545;BMP180;56766;52.260;20.746;2023-02-03T06:16:04;100651.00;;;-1.60
69545;BMP180;56766;52.260;20.746;2023-02-03T06:18:32;100642.60;;;-1.60
69545;BMP180;56766;52.260;20.746;2023-02-03T06:20:59;100633.20;;;-1.60
69545;BMP180;56766;52.260;20.746;2023-02-03T06:23:25;100630.80;;;-1.60
69545;BMP180;56766;52.260;20.746;2023-02-03T06:25:52;100631.40;;;-1.60
69545;BMP180;56766;52.260;20.746;2023-02-03T06:28:18;100630.40;;;-1.50
69545;BMP180;56766;52.260;20.746;2023-02-03T06:30:49;100624.00;;;-1.50
69545;BMP180;56766;52.260;20.746;2023-02-03T06:33:18;100618.20;;;-1.50
69545;BMP180;56766;52.260;20.746;2023-02-03T06:35:45;100615.80;;;-1.50
69545;BMP180;56766;52.260;20.746;2023-02-03T06:38:12;100612.40;;;-1.50
69545;BMP180;56766;52.260;20.746;2023-02-03T06:40:38;100609.40;;;-1.40
69545;BMP180;56766;52.260;20.746;2023-02-03T06:43:05;100616.20;;;-1.40
69545;BMP180;56766;52.260;20.746;2023-02-03T06:45:31;100609.00;;;-1.30
69545;BMP180;56766;52.260;20.746;2023-02-03T06:47:58;100606.40;;;-1.20
69545;BMP180;56766;52.260;20.746;2023-02-03T06:50:25;100602.40;;;-1.14
69545;BMP180;56766;52.260;20.746;2023-02-03T06:52:52;100598.00;;;-1.04
69545;BMP180;56766;52.260;20.746;2023-02-03T06:55:19;100584.00;;;-1.00
69545;BMP180;56766;52.260;20.746;2023-02-03T06:57:47;100579.00;;;-0.90
69545;BMP180;56766;52.260;20.746;2023-02-03T07:00:17;100576.80;;;-0.80
69545;BMP180;56766;52.260;20.746;2023-02-03T07:02:45;100570.60;;;-0.70
69545;BMP180;56766;52.260;20.746;2023-02-03T07:05:12;100566.20;;;-0.70
69545;BMP180;56766;52.260;20.746;2023-02-03T07:07:40;100566.40;;;-0.60
69545;BMP180;56766;52.260;20.746;2023-02-03T07:10:07;100560.00;;;-0.60
69545;BMP180;56766;52.260;20.746;2023-02-03T07:12:34;100548.80;;;-0.50
69545;BMP180;56766;52.260;20.746;2023-02-03T07:15:03;100554.80;;;-0.40
69545;BMP180;56766;52.260;20.746;2023-02-03T07:17:30;100544.80;;;-0.30
69545;BMP180;56766;52.260;20.746;2023-02-03T07:19:57;100536.00;;;-0.30
69545;BMP180;56766;52.260;20.746;2023-02-03T07:22:24;100535.00;;;-0.30
69545;BMP180;56766;52.260;20.746;2023-02-03T07:24:50;100531.60;;;-0.20
69545;BMP180;56766;52.260;20.746;2023-02-03T07:27:17;100533.80;;;-0.20
69545;BMP180;56766;52.260;20.746;2023-02-03T07:29:45;100532.60;;;-0.10
69545;BMP180;56766;52.260;20.746;2023-02-03T07:32:13;100526.80;;;-0.10
69545;BMP180;56766;52.260;20.746;2023-02-03T07:34:39;100527.00;;;0.00
69545;BMP180;56766;52.260;20.746;2023-02-03T07:37:06;100523.20;;;0.10
69545;BMP180;56766;52.260;20.746;2023-02-03T07:39:33;100523.60;;;0.20
69545;BMP180;56766;52.260;20.746;2023-02-03T07:42:00;100516.00;;;0.32
69545;BMP180;56766;52.260;20.746;2023-02-03T07:44:27;100509.60;;;0.40
69545;BMP180;56766;52.260;20.746;2023-02-03T07:46:53;100508.80;;;0.48
69545;BMP180;56766;52.260;20.746;2023-02-03T07:49:20;100499.40;;;0.50
69545;BMP180;56766;52.260;20.746;2023-02-03T07:51:47;100493.40;;;0.50
69545;BMP180;56766;52.260;20.746;2023-02-03T07:54:13;100489.60;;;0.56
69545;BMP180;56766;52.260;20.746;2023-02-03T07:56:42;100481.40;;;0.60
69545;BMP180;56766;52.260;20.746;2023-02-03T07:59:09;100485.40;;;0.62
69545;BMP180;56766;52.260;20.746;2023-02-03T08:01:36;100473.40;;;0.70
69545;BMP180;56766;52.260;20.746;2023-02-03T08:04:02;100476.60;;;0.80
69545;BMP180;56766;52.260;20.746;2023-02-03T08:06:31;100470.60;;;0.90
69545;BMP180;56766;52.260;20.746;2023-02-03T08:08:58;100473.60;;;1.00
69545;BMP180;56766;52.260;20.746;2023-02-03T08:11:24;100465.20;;;1.00
69545;BMP180;56766;52.260;20.746;2023-02-03T08:13:51;100461.60;;;1.04
69545;BMP180;56766;52.260;20.746;2023-02-03T08:16:18;100458.40;;;1.16
69545;BMP180;56766;52.260;20.746;2023-02-03T08:18:45;100456.00;;;1.32
69545;BMP180;56766;52.260;20.746;2023-02-03T08:21:11;100450.20;;;1.46
69545;BMP180;56766;52.260;20.746;2023-02-03T08:23:38;100448.60;;;1.50
69545;BMP180;56766;52.260;20.746;2023-02-03T08:26:05;100439.40;;;1.54
69545;BMP180;56766;52.260;20.746;2023-02-03T08:28:31;100438.20;;;1.50
69545;BMP180;56766;52.260;20.746;2023-02-03T08:30:58;100437.00;;;1.60
69545;BMP180;56766;52.260;20.746;2023-02-03T08:33:25;100427.60;;;1.70
69545;BMP180;56766;52.260;20.746;2023-02-03T08:35:53;100422.20;;;1.80
69545;BMP180;56766;52.260;20.746;2023-02-03T08:38:19;100417.60;;;1.88
69545;BMP180;56766;52.260;20.746;2023-02-03T08:40:47;100415.40;;;1.90
69545;BMP180;56766;52.260;20.746;2023-02-03T08:43:13;100412.40;;;1.90
69545;BMP180;56766;52.260;20.746;2023-02-03T08:45:40;100406.20;;;2.00
69545;BMP180;56766;52.260;20.746;2023-02-03T08:48:07;100404.00;;;2.00
69545;BMP180;56766;52.260;20.746;2023-02-03T08:50:34;100390.40;;;2.00
69545;BMP180;56766;52.260;20.746;2023-02-03T08:53:00;100393.40;;;2.00
69545;BMP180;56766;52.260;20.746;2023-02-03T08:55:28;100390.40;;;2.00
69545;BMP180;56766;52.260;20.746;2023-02-03T08:57:54;100381.00;;;2.10
69545;BMP180;56766;52.260;20.746;2023-02-03T09:00:21;100377.60;;;2.12
69545;BMP180;56766;52.260;20.746;2023-02-03T09:02:48;100372.00;;;2.22
69545;BMP180;56766;52.260;20.746;2023-02-03T09:05:14;100366.40;;;2.30
69545;BMP180;56766;52.260;20.746;2023-02-03T09:07:45;100360.60;;;2.36
69545;BMP180;56766;52.260;20.746;2023-02-03T09:10:12;100356.20;;;2.32
69545;BMP180;56766;52.260;20.746;2023-02-03T09:12:38;100354.00;;;2.36
69545;BMP180;56766;52.260;20.746;2023-02-03T09:15:05;100354.00;;;2.36
69545;BMP180;56766;52.260;20.746;2023-02-03T09:17:32;100347.60;;;2.40
69545;BMP180;56766;52.260;20.746;2023-02-03T09:19:59;100346.20;;;2.40
69545;BMP180;56766;52.260;20.746;2023-02-03T09:22:25;100339.00;;;2.40
69545;BMP180;56766;52.260;20.746;2023-02-03T09:24:52;100338.40;;;2.50
69545;BMP180;56766;52.260;20.746;2023-02-03T09:27:18;100327.80;;;2.50
69545;BMP180;56766;52.260;20.746;2023-02-03T09:29:45;100323.60;;;2.50
69545;BMP180;56766;52.260;20.746;2023-02-03T09:32:12;100316.20;;;2.50
69545;BMP180;56766;52.260;20.746;2023-02-03T09:34:38;100308.40;;;2.50
69545;BMP180;56766;52.260;20.746;2023-02-03T09:37:08;100298.00;;;2.50
69545;BMP180;56766;52.260;20.746;2023-02-03T09:39:34;100289.00;;;2.50
69545;BMP180;56766;52.260;20.746;2023-02-03T09:42:42;100285.40;;;2.54
69545;BMP180;56766;52.260;20.746;2023-02-03T09:45:27;100267.80;;;2.50
69545;BMP180;56766;52.260;20.746;2023-02-03T09:48:11;100263.00;;;2.50
69545;BMP180;56766;52.260;20.746;2023-02-03T09:50:43;100250.60;;;2.50
69545;BMP180;56766;52.260;20.746;2023-02-03T09:53:41;100253.60;;;2.50
69545;BMP180;56766;52.260;20.746;2023-02-03T09:56:31;100243.40;;;2.50
69545;BMP180;56766;52.260;20.746;2023-02-03T09:59:00;100239.40;;;2.50
69545;BMP180;56766;52.260;20.746;2023-02-03T10:05:19;100233.20;;;2.70
69545;BMP180;56766;52.260;20.746;2023-02-03T10:08:15;100216.40;;;2.70
69545;BMP180;56766;52.260;20.746;2023-02-03T10:11:14;100206.20;;;2.70
69545;BMP180;56766;52.260;20.746;2023-02-03T10:17:38;100190.60;;;2.96
69545;BMP180;56766;52.260;20.746;2023-02-03T10:20:22;100186.00;;;3.00
69545;BMP180;56766;52.260;20.746;2023-02-03T10:22:57;100173.80;;;3.10
69545;BMP180;56766;52.260;20.746;2023-02-03T10:25:42;100165.80;;;3.10
69545;BMP180;56766;52.260;20.746;2023-02-03T10:28:18;100155.40;;;3.10
69545;BMP180;56766;52.260;20.746;2023-02-03T10:30:53;100157.20;;;3.10
69545;BMP180;56766;52.260;20.746;2023-02-03T10:33:27;100147.60;;;3.10
69545;BMP180;56766;52.260;20.746;2023-02-03T10:36:09;100138.00;;;3.00
69545;BMP180;56766;52.260;20.746;2023-02-03T10:41:17;100118.20;;;3.00
69545;BMP180;56766;52.260;20.746;2023-02-03T10:43:45;100113.60;;;3.00
69545;BMP180;56766;52.260;20.746;2023-02-03T10:46:20;100104.00;;;3.00
69545;BMP180;56766;52.260;20.746;2023-02-03T10:48:51;100089.40;;;3.00
69545;BMP180;56766;52.260;20.746;2023-02-03T10:54:00;100078.60;;;2.80
69545;BMP180;56766;52.260;20.746;2023-02-03T10:56:36;100061.60;;;2.76
69545;BMP180;56766;52.260;20.746;2023-02-03T10:59:05;100060.40;;;2.70
69545;BMP180;56766;52.260;20.746;2023-02-03T11:01:43;100044.00;;;2.70
69545;BMP180;56766;52.260;20.746;2023-02-03T11:04:29;100040.40;;;2.70
69545;BMP180;56766;52.260;20.746;2023-02-03T11:07:01;100025.40;;;2.60
69545;BMP180;56766;52.260;20.746;2023-02-03T11:09:40;100016.80;;;2.50
69545;BMP180;56766;52.260;20.746;2023-02-03T11:12:18;100003.20;;;2.40
69545;BMP180;56766;52.260;20.746;2023-02-03T11:14:47;99992.60;;;2.30
69545;BMP180;56766;52.260;20.746;2023-02-03T11:17:25;99979.20;;;2.30
69545;BMP180;56766;52.260;20.746;2023-02-03T11:20:01;99967.60;;;2.30
69545;BMP180;56766;52.260;20.746;2023-02-03T11:22:37;99964.20;;;2.30
69545;BMP180;56766;52.260;20.746;2023-02-03T11:25:27;99963.00;;;2.30
69545;BMP180;56766;52.260;20.746;2023-02-03T11:28:06;99943.00;;;2.30
69545;BMP180;56766;52.260;20.746;2023-02-03T11:30:37;99938.20;;;2.30
69545;BMP180;56766;52.260;20.746;2023-02-03T11:33:19;99932.20;;;2.30
69545;BMP180;56766;52.260;20.746;2023-02-03T11:35:57;99923.80;;;2.40
69545;BMP180;56766;52.260;20.746;2023-02-03T11:38:34;99912.00;;;2.44
69545;BMP180;56766;52.260;20.746;2023-02-03T11:41:16;99903.80;;;2.50
69545;BMP180;56766;52.260;20.746;2023-02-03T11:43:44;99900.00;;;2.50
69545;BMP180;56766;52.260;20.746;2023-02-03T11:46:14;99892.60;;;2.50
69545;BMP180;56766;52.260;20.746;2023-02-03T11:49:06;99889.60;;;2.50
69545;BMP180;56766;52.260;20.746;2023-02-03T11:52:43;99877.00;;;2.60
69545;BMP180;56766;52.260;20.746;2023-02-03T11:54:56;99882.40;;;2.60
69545;BMP180;56766;52.260;20.746;2023-02-03T12:00:29;99871.40;;;2.50
69545;BMP180;56766;52.260;20.746;2023-02-03T12:03:35;99868.80;;;2.40
69545;BMP180;56766;52.260;20.746;2023-02-03T12:06:51;99862.80;;;2.30
69545;BMP180;56766;52.260;20.746;2023-02-03T12:09:47;99862.20;;;2.26
69545;BMP180;56766;52.260;20.746;2023-02-03T12:12:44;99857.60;;;2.20
69545;BMP180;56766;52.260;20.746;2023-02-03T12:18:33;99842.80;;;2.00
69545;BMP180;56766;52.260;20.746;2023-02-03T12:24:43;99824.00;;;1.80
69545;BMP180;56766;52.260;20.746;2023-02-03T12:27:32;99812.00;;;1.70
69545;BMP180;56766;52.260;20.746;2023-02-03T12:30:16;99799.00;;;1.70
69545;BMP180;56766;52.260;20.746;2023-02-03T12:32:59;99795.40;;;1.70
69545;BMP180;56766;52.260;20.746;2023-02-03T12:35:44;99791.60;;;1.70
69545;BMP180;56766;52.260;20.746;2023-02-03T12:38:41;99776.00;;;1.68
69545;BMP180;56766;52.260;20.746;2023-02-03T12:41:24;99768.00;;;1.70
69545;BMP180;56766;52.260;20.746;2023-02-03T12:44:06;99758.60;;;1.68
69545;BMP180;56766;52.260;20.746;2023-02-03T12:47:00;99752.80;;;1.60
69545;BMP180;56766;52.260;20.746;2023-02-03T12:52:43;99730.00;;;1.50
69545;BMP180;56766;52.260;20.746;2023-02-03T12:55:40;99723.40;;;1.40
69545;BMP180;56766;52.260;20.746;2023-02-03T13:01:15;99706.20;;;1.20
69545;BMP180;56766;52.260;20.746;2023-02-03T13:04:09;99694.80;;;1.20
69545;BMP180;56766;52.260;20.746;2023-02-03T13:09:56;99674.60;;;1.04
69545;BMP180;56766;52.260;20.746;2023-02-03T13:12:35;99664.40;;;0.98
69545;BMP180;56766;52.260;20.746;2023-02-03T13:15:52;99650.80;;;0.90
69545;BMP180;56766;52.260;20.746;2023-02-03T13:18:38;99642.40;;;0.90
69545;BMP180;56766;52.260;20.746;2023-02-03T13:21:11;99627.20;;;0.80
69545;BMP180;56766;52.260;20.746;2023-02-03T13:23:42;99621.00;;;0.76
69545;BMP180;56766;52.260;20.746;2023-02-03T13:26:55;99611.80;;;0.70
69545;BMP180;56766;52.260;20.746;2023-02-03T13:30:04;99600.80;;;0.60
69545;BMP180;56766;52.260;20.746;2023-02-03T13:33:14;99583.00;;;0.50
69545;BMP180;56766;52.260;20.746;2023-02-03T13:36:04;99579.00;;;0.48
69545;BMP180;56766;52.260;20.746;2023-02-03T13:39:19;99568.40;;;0.40
69545;BMP180;56766;52.260;20.746;2023-02-03T13:42:18;99563.80;;;0.40
69545;BMP180;56766;52.260;20.746;2023-02-03T13:44:58;99558.00;;;0.30
69545;BMP180;56766;52.260;20.746;2023-02-03T13:47:31;99553.40;;;0.26
69545;BMP180;56766;52.260;20.746;2023-02-03T13:50:24;99549.20;;;0.20
69545;BMP180;56766;52.260;20.746;2023-02-03T13:53:02;99547.00;;;0.20
69545;BMP180;56766;52.260;20.746;2023-02-03T13:55:39;99546.00;;;0.20
69545;BMP180;56766;52.260;20.746;2023-02-03T13:58:39;99538.00;;;0.18
69545;BMP180;56766;52.260;20.746;2023-02-03T14:01:34;99532.20;;;0.10
69545;BMP180;56766;52.260;20.746;2023-02-03T14:12:30;99501.20;;;0.06
69545;BMP180;56766;52.260;20.746;2023-02-03T14:15:12;99487.20;;;0.00
69545;BMP180;56766;52.260;20.746;2023-02-03T14:23:10;99473.40;;;0.00
69545;BMP180;56766;52.260;20.746;2023-02-03T14:25:54;99470.60;;;0.00
69545;BMP180;56766;52.260;20.746;2023-02-03T14:28:36;99464.20;;;0.00
69545;BMP180;56766;52.260;20.746;2023-02-03T14:31:17;99457.40;;;0.00
69545;BMP180;56766;52.260;20.746;2023-02-03T14:36:34;99449.60;;;0.00
69545;BMP180;56766;52.260;20.746;2023-02-03T14:42:15;99434.20;;;0.00
69545;BMP180;56766;52.260;20.746;2023-02-03T14:45:06;99430.00;;;-0.06
69545;BMP180;56766;52.260;20.746;2023-02-03T14:48:08;99429.20;;;-0.02
69545;BMP180;56766;52.260;20.746;2023-02-03T14:51:06;99423.00;;;-0.10
69545;BMP180;56766;52.260;20.746;2023-02-03T14:54:18;99418.20;;;-0.10
69545;BMP180;56766;52.260;20.746;2023-02-03T15:00:07;99407.00;;;-0.10
69545;BMP180;56766;52.260;20.746;2023-02-03T15:07:58;99386.40;;;-0.10
69545;BMP180;56766;52.260;20.746;2023-02-03T15:10:41;99387.80;;;-0.10
69545;BMP180;56766;52.260;20.746;2023-02-03T15:13:30;99384.80;;;-0.12
69545;BMP180;56766;52.260;20.746;2023-02-03T15:16:03;99375.60;;;-0.16
69545;BMP180;56766;52.260;20.746;2023-02-03T15:18:34;99372.40;;;-0.18
69545;BMP180;56766;52.260;20.746;2023-02-03T15:21:03;99366.80;;;-0.16
69545;BMP180;56766;52.260;20.746;2023-02-03T15:23:41;99363.00;;;-0.20
69545;BMP180;56766;52.260;20.746;2023-02-03T15:26:15;99364.80;;;-0.20
69545;BMP180;56766;52.260;20.746;2023-02-03T15:28:53;99358.80;;;-0.20
69545;BMP180;56766;52.260;20.746;2023-02-03T15:31:40;99357.60;;;-0.20
69545;BMP180;56766;52.260;20.746;2023-02-03T15:34:32;99352.20;;;-0.20
69545;BMP180;56766;52.260;20.746;2023-02-03T15:37:16;99342.60;;;-0.20
69545;BMP180;56766;52.260;20.746;2023-02-03T15:40:02;99340.00;;;-0.20
69545;BMP180;56766;52.260;20.746;2023-02-03T15:42:56;99340.80;;;-0.20
69545;BMP180;56766;52.260;20.746;2023-02-03T15:45:38;99339.60;;;-0.20
69545;BMP180;56766;52.260;20.746;2023-02-03T15:48:25;99335.60;;;-0.20
69545;BMP180;56766;52.260;20.746;2023-02-03T15:51:05;99333.20;;;-0.20